Time;durP1;ratioP1;P1;durP2;ratioP2;P2;SDS_P1;SDS_P2;PMS_P1;PMS_P2;Temp;Humidity;BMP_temperature;BMP_pressure;BME280_temperature;BME280_humidity;BME280_pressure;Samples;Min_cycle;Max_cycle;Signal;HPM_P1;HPM_P2
2023/10/02 00:01:51;;;;;;;11.65;9.55;;;;;;;16.73;57.73;95532.28;5089741;28;20220;-72
2023/10/02 00:04:18;;;;;;;10.20;9.20;;;;;;;16.63;57.74;95521.91;5085427;28;20227;-70
2023/10/02 00:06:47;;;;;;;10.82;9.75;;;;;;;16.66;57.81;95518.91;5069405;28;20193;-70
2023/10/02 00:09:16;;;;;;;10.20;9.10;;;;;;;16.58;57.40;95526.91;5071732;28;20199;-69
2023/10/02 00:11:41;;;;;;;9.60;8.68;;;;;;;16.59;57.27;95517.94;5091239;28;20212;-72
2023/10/02 00:14:22;;;;;;;9.05;8.15;;;;;;;16.70;57.13;95525.50;5073499;28;20382;-72
2023/10/02 00:17:00;;;;;;;9.30;8.45;;;;;;;16.82;56.59;95523.28;5066324;28;20227;-70
2023/10/02 00:19:39;;;;;;;8.90;8.10;;;;;;;16.82;56.56;95527.78;5070893;28;20219;-70
2023/10/02 00:24:57;;;;;;;9.35;7.70;;;;;;;16.87;55.74;95523.59;5088132;28;21029;-71
2023/10/02 00:27:23;;;;;;;9.15;7.43;;;;;;;16.88;55.55;95529.72;5082729;28;20196;-70
2023/10/02 00:29:51;;;;;;;9.43;7.72;;;;;;;16.72;55.77;95518.19;5076075;28;20248;-71
2023/10/02 00:32:19;;;;;;;9.43;7.72;;;;;;;16.82;55.58;95520.63;5068585;28;20223;-71
2023/10/02 00:34:46;;;;;;;9.07;7.68;;;;;;;16.72;55.79;95520.84;5084454;28;20216;-71
2023/10/02 00:37:15;;;;;;;7.90;7.10;;;;;;;16.83;55.80;95519.63;5087119;28;20231;-71
2023/10/02 00:39:41;;;;;;;12.52;7.90;;;;;;;16.82;55.24;95514.50;5066655;28;20196;-71
2023/10/02 00:42:17;;;;;;;8.77;7.15;;;;;;;16.96;54.93;95519.03;5088559;28;20188;-71
2023/10/02 00:44:54;;;;;;;8.32;7.53;;;;;;;16.81;55.31;95518.97;5072737;28;20212;-72
2023/10/02 00:50:16;;;;;;;10.13;6.88;;;;;;;16.84;55.01;95515.13;5092263;28;20228;-71
2023/10/02 00:52:56;;;;;;;8.98;6.85;;;;;;;16.85;54.88;95516.81;5076041;28;20207;-72
2023/10/02 00:55:30;;;;;;;7.95;6.88;;;;;;;16.80;54.87;95517.31;5073869;28;20219;-71
2023/10/02 00:57:56;;;;;;;8.43;7.05;;;;;;;16.73;54.85;95519.00;5083244;28;20311;-71
2023/10/02 01:00:36;;;;;;;6.40;5.80;;;;;;;16.66;54.83;95518.06;5074211;28;20188;-70
2023/10/02 01:03:14;;;;;;;7.18;6.47;;;;;;;16.74;54.50;95515.34;5093622;28;20212;-70
2023/10/02 01:05:50;;;;;;;9.00;6.28;;;;;;;16.75;54.45;95509.84;5072446;28;20226;-71
2023/10/02 01:08:23;;;;;;;8.10;6.30;;;;;;;16.75;54.15;95515.16;5064821;28;20231;-70
2023/10/02 01:11:00;;;;;;;6.82;5.85;;;;;;;16.60;54.69;95510.78;5069211;28;20280;-70
2023/10/02 01:13:32;;;;;;;8.25;6.30;;;;;;;16.52;54.79;95514.38;5072736;28;20204;-71
2023/10/02 01:16:08;;;;;;;6.88;6.07;;;;;;;16.65;54.52;95511.94;5067973;28;20216;-71
2023/10/02 01:18:36;;;;;;;8.27;6.28;;;;;;;16.69;54.00;95507.91;5089818;28;20179;-71
2023/10/02 01:21:12;;;;;;;7.63;6.47;;;;;;;16.77;53.90;95504.41;5072817;28;20181;-71
2023/10/02 01:24:07;;;;;;;11.20;5.88;;;;;;;16.74;53.79;95515.34;5075544;28;20215;-71
2023/10/02 01:26:36;;;;;;;9.68;6.40;;;;;;;16.65;53.70;95506.63;5093380;28;20539;-71
2023/10/02 01:29:04;;;;;;;8.30;6.07;;;;;;;16.60;54.02;95503.69;5070777;28;20826;-71
2023/10/02 01:31:41;;;;;;;6.55;5.82;;;;;;;16.63;53.91;95510.47;5092408;28;20687;-71
2023/10/02 01:34:07;;;;;;;10.18;6.55;;;;;;;16.42;54.07;95506.63;5085585;28;20227;-70
2023/10/02 01:36:32;;;;;;;8.45;6.55;;;;;;;16.32;54.29;95509.50;5065203;28;20200;-71
2023/10/02 01:39:15;;;;;;;6.95;5.38;;;;;;;16.40;54.19;95521.06;5079661;28;20184;-71
2023/10/02 01:41:48;;;;;;;6.10;5.50;;;;;;;16.35;54.22;95513.63;5075363;28;20215;-71
2023/10/02 01:44:14;;;;;;;6.90;6.03;;;;;;;16.33;54.20;95518.28;5069557;28;20691;-70
2023/10/02 01:46:50;;;;;;;7.60;5.72;;;;;;;16.37;54.49;95514.28;5086768;28;20216;-71
2023/10/02 01:49:26;;;;;;;5.93;5.35;;;;;;;16.43;53.84;95512.75;5088826;28;20219;-71
2023/10/02 01:51:55;;;;;;;7.28;6.28;;;;;;;16.43;53.95;95510.09;5066487;28;20773;-71
2023/10/02 01:54:25;;;;;;;6.53;5.63;;;;;;;16.32;54.22;95512.13;5073969;28;20222;-71
2023/10/02 01:56:52;;;;;;;6.85;5.43;;;;;;;16.42;53.67;95511.94;5088346;28;20232;-71
2023/10/02 01:59:21;;;;;;;8.52;6.25;;;;;;;16.53;53.58;95513.34;5065755;28;20311;-71
2023/10/02 02:01:57;;;;;;;11.23;6.07;;;;;;;16.50;53.94;95514.53;5072431;28;20269;-71
2023/10/02 02:04:29;;;;;;;7.97;5.75;;;;;;;16.53;53.60;95524.78;5070623;28;20235;-71
2023/10/02 02:06:56;;;;;;;10.00;6.10;;;;;;;16.34;54.07;95516.47;5066708;28;20298;-71
2023/10/02 02:09:26;;;;;;;9.25;6.25;;;;;;;16.30;53.83;95514.16;5069878;28;20190;-71
2023/10/02 02:12:06;;;;;;;6.55;5.75;;;;;;;16.33;53.65;95523.56;5066934;28;20244;-71
2023/10/02 02:14:49;;;;;;;7.13;5.60;;;;;;;16.34;53.84;95524.44;5061112;28;20230;-71
2023/10/02 02:17:16;;;;;;;6.78;6.07;;;;;;;16.34;53.75;95525.25;5067494;28;20223;-71
2023/10/02 02:19:48;;;;;;;7.47;6.00;;;;;;;16.29;53.64;95528.41;5087908;28;20243;-71
2023/10/02 02:22:26;;;;;;;6.53;5.40;;;;;;;16.03;53.91;95522.59;5067096;28;20243;-70
2023/10/02 02:24:58;;;;;;;9.50;6.00;;;;;;;16.09;53.70;95521.88;5082072;28;20221;-70
2023/10/02 02:27:24;;;;;;;8.10;5.85;;;;;;;16.02;53.73;95526.25;5090822;28;20180;-70
2023/10/02 02:29:54;;;;;;;9.13;5.70;;;;;;;16.04;53.20;95525.06;5068200;28;20220;-71
2023/10/02 02:32:36;;;;;;;6.70;5.60;;;;;;;16.06;52.84;95531.03;5061035;28;20222;-71
2023/10/02 02:35:08;;;;;;;7.47;6.20;;;;;;;16.07;52.55;95523.91;5070348;28;20216;-72
2023/10/02 02:37:34;;;;;;;8.15;5.30;;;;;;;15.86;52.29;95533.25;5054468;28;20217;-72
2023/10/02 02:42:51;;;;;;;5.05;4.55;;;;;;;15.85;51.97;95541.38;5067633;28;20227;-71
2023/10/02 02:45:29;;;;;;;5.63;4.68;;;;;;;15.78;52.01;95543.06;5071153;28;20419;-72
2023/10/02 02:48:07;;;;;;;8.43;5.00;;;;;;;15.81;51.71;95540.09;5080633;28;20220;-72
2023/10/02 02:50:43;;;;;;;6.00;4.90;;;;;;;15.74;51.65;95539.91;5080914;28;20418;-72
2023/10/02 02:53:21;;;;;;;8.00;5.20;;;;;;;15.79;51.21;95542.06;5063627;28;20236;-72
2023/10/02 02:56:23;;;;;;;8.85;5.05;;;;;;;15.70;51.11;95538.63;5069631;28;20221;-72
2023/10/02 02:58:56;;;;;;;6.68;4.82;;;;;;;15.81;51.11;95540.91;5062579;28;20600;-72
2023/10/02 03:01:22;;;;;;;8.00;5.10;;;;;;;15.78;51.12;95548.38;5065143;28;20275;-72
2023/10/02 03:03:51;;;;;;;6.05;4.80;;;;;;;15.75;51.14;95536.28;5076046;28;20225;-72
2023/10/02 03:06:23;;;;;;;7.03;4.95;;;;;;;15.80;50.84;95539.25;5083126;28;20193;-71
2023/10/02 03:08:53;;;;;;;6.45;4.93;;;;;;;15.59;51.52;95537.13;5068720;28;20224;-71
2023/10/02 03:11:19;;;;;;;8.25;4.93;;;;;;;15.63;51.64;95527.00;5070320;28;20316;-70
2023/10/02 03:13:51;;;;;;;6.57;4.72;;;;;;;15.69;50.77;95530.84;5068007;28;20323;-70
2023/10/02 03:16:19;;;;;;;8.95;5.30;;;;;;;15.58;50.79;95530.19;5050688;28;20230;-70
2023/10/02 03:18:48;;;;;;;7.55;4.70;;;;;;;15.62;50.67;95523.53;5050853;28;20834;-71
2023/10/02 03:21:23;;;;;;;6.40;4.78;;;;;;;15.73;50.38;95532.97;5070703;28;20191;-72
2023/10/02 03:23:58;;;;;;;5.47;4.15;;;;;;;15.71;49.81;95534.97;5061877;28;20301;-72
2023/10/02 03:26:37;;;;;;;6.63;4.88;;;;;;;15.54;49.65;95528.88;5078912;28;20204;-73
2023/10/02 03:29:06;;;;;;;7.28;4.88;;;;;;;15.54;49.43;95538.66;5084965;28;20298;-72
2023/10/02 03:31:37;;;;;;;6.45;4.47;;;;;;;15.52;49.50;95530.03;5059792;28;20260;-74
2023/10/02 03:36:54;;;;;;;7.15;4.82;;;;;;;15.58;48.91;95529.34;5070086;28;20259;-74
2023/10/02 03:39:51;;;;;;;5.57;4.35;;;;;;;15.42;48.81;95531.06;5083028;28;20196;-74
2023/10/02 03:42:12;;;;;;;7.80;5.00;;;;;;;15.26;48.90;95531.06;5069379;28;20212;-74
2023/10/02 03:44:45;;;;;;;7.25;4.93;;;;;;;15.36;49.02;95537.00;5079498;28;20224;-72
2023/10/02 03:47:14;;;;;;;8.43;4.55;;;;;;;15.24;48.24;95540.19;5084880;28;20285;-72
2023/10/02 03:49:43;;;;;;;8.82;4.68;;;;;;;15.19;48.51;95535.41;5084654;28;20227;-71
2023/10/02 03:52:13;;;;;;;9.43;3.92;;;;;;;15.20;48.40;95524.63;5065937;28;20219;-71
2023/10/02 03:54:39;;;;;;;5.95;4.82;;;;;;;15.16;48.19;95525.13;5060221;28;20204;-71
2023/10/02 03:57:07;;;;;;;7.43;4.38;;;;;;;15.22;47.99;95529.75;5072811;28;20210;-71
2023/10/02 03:59:32;;;;;;;5.40;4.45;;;;;;;15.21;47.95;95528.13;5066019;28;20229;-70
2023/10/02 04:02:24;;;;;;;7.05;4.57;;;;;;;15.16;47.87;95533.91;5062716;28;20209;-72
2023/10/02 04:04:46;;;;;;;7.97;4.65;;;;;;;15.22;47.59;95540.34;5060876;28;20220;-72
2023/10/02 04:07:12;;;;;;;6.75;4.20;;;;;;;15.21;47.50;95539.53;5059591;28;20556;-72
2023/10/02 04:09:38;;;;;;;7.63;3.90;;;;;;;15.13;47.45;95534.25;5066019;28;20188;-71
2023/10/02 04:12:07;;;;;;;7.18;4.40;;;;;;;15.19;47.17;95540.69;5081530;28;20272;-72
2023/10/02 04:14:33;;;;;;;6.45;4.20;;;;;;;15.13;47.20;95547.50;5064072;28;20219;-72
2023/10/02 04:19:51;;;;;;;7.72;4.43;;;;;;;15.13;47.11;95554.59;5073895;28;20228;-72
2023/10/02 04:22:25;;;;;;;7.10;4.03;;;;;;;15.22;46.82;95551.78;5067246;28;20350;-72
2023/10/02 04:24:59;;;;;;;7.28;3.92;;;;;;;15.18;47.06;95545.16;5064708;28;20221;-72
2023/10/02 04:27:27;;;;;;;6.28;3.83;;;;;;;15.25;47.00;95568.34;5069758;28;20177;-72
2023/10/02 04:32:59;;;;;;;7.22;4.43;;;;;;;15.24;46.92;95562.22;5029347;28;20226;-73
2023/10/02 04:35:44;;;;;;;8.15;4.50;;;;;;;15.16;46.94;95573.63;5031001;28;20217;-71
2023/10/02 04:38:14;;;;;;;7.75;4.10;;;;;;;15.16;46.91;95572.81;5017247;28;20225;-70
2023/10/02 04:40:51;;;;;;;7.07;3.88;;;;;;;15.13;46.96;95568.69;5009125;28;20222;-70
2023/10/02 04:43:19;;;;;;;9.38;4.57;;;;;;;15.11;47.05;95570.66;5018586;28;20226;-71
2023/10/02 04:45:52;;;;;;;10.95;4.57;;;;;;;15.08;47.31;95576.28;5006948;28;20329;-72
2023/10/02 04:48:26;;;;;;;6.50;4.35;;;;;;;15.09;47.25;95577.13;5021273;28;20299;-72
2023/10/02 04:50:54;;;;;;;5.82;4.03;;;;;;;15.18;47.02;95581.41;5017158;28;20221;-73
2023/10/02 04:53:22;;;;;;;9.15;4.03;;;;;;;15.18;47.05;95576.97;4986021;28;20226;-73
2023/10/02 04:55:57;;;;;;;8.63;3.72;;;;;;;15.26;46.74;95576.09;4984250;28;20227;-73
2023/10/02 04:58:27;;;;;;;9.32;3.92;;;;;;;15.29;46.74;95582.88;4977619;28;20227;-72
2023/10/02 05:03:37;;;;;;;9.32;4.15;;;;;;;15.31;46.72;95584.38;4998131;28;20195;-72
2023/10/02 05:06:04;;;;;;;8.45;4.15;;;;;;;15.38;46.53;95588.03;5000318;28;20218;-73
2023/10/02 05:08:35;;;;;;;8.43;4.35;;;;;;;15.44;46.33;95589.16;5030613;28;20250;-73
2023/10/02 05:11:07;;;;;;;8.45;4.05;;;;;;;15.38;46.44;95592.50;5054714;28;20301;-72
2023/10/02 05:16:42;;;;;;;6.38;4.20;;;;;;;15.32;46.23;95587.88;5064582;28;20281;-69
2023/10/02 05:19:07;;;;;;;6.20;3.92;;;;;;;15.29;46.23;95585.53;5073430;28;20237;-70
2023/10/02 05:21:39;;;;;;;6.65;4.10;;;;;;;15.31;46.04;95592.31;5081691;28;20255;-69
2023/10/02 05:24:07;;;;;;;7.68;3.78;;;;;;;15.29;46.09;95597.00;5063882;28;20181;-70
2023/10/02 05:26:36;;;;;;;7.25;3.95;;;;;;;15.42;46.28;95596.44;5065925;28;20583;-69
2023/10/02 05:29:07;;;;;;;5.45;3.38;;;;;;;15.51;46.21;95606.06;5066326;28;20217;-75
2023/10/02 05:31:41;;;;;;;5.35;3.97;;;;;;;15.48;45.96;95605.59;5076575;28;20248;-74
2023/10/02 05:34:16;;;;;;;8.35;4.15;;;;;;;15.46;46.01;95602.28;5072513;28;20306;-75
2023/10/02 05:39:31;;;;;;;5.65;3.97;;;;;;;15.80;45.43;95610.03;5071622;28;20207;-73
2023/10/02 05:42:06;;;;;;;5.70;3.97;;;;;;;15.86;45.17;95601.38;5063596;28;20223;-78
2023/10/02 05:44:45;;;;;;;4.10;3.33;;;;;;;15.95;44.64;95613.63;5060723;28;20223;-78
2023/10/02 05:47:15;;;;;;;7.03;3.95;;;;;;;15.96;44.52;95602.03;5054487;28;20228;-72
2023/10/02 05:49:47;;;;;;;7.50;3.47;;;;;;;15.95;44.83;95610.97;5071641;28;20220;-74
2023/10/02 05:52:23;;;;;;;6.15;3.67;;;;;;;15.99;44.69;95616.78;5088789;28;20226;-74
2023/10/02 05:54:53;;;;;;;7.50;3.58;;;;;;;15.84;44.66;95613.97;5076179;28;20226;-75
2023/10/02 05:57:19;;;;;;;4.80;3.47;;;;;;;15.92;44.18;95613.97;5096012;28;20211;-76
2023/10/02 05:59:47;;;;;;;7.95;3.50;;;;;;;15.95;44.12;95616.28;5087124;28;20224;-76
2023/10/02 06:02:14;;;;;;;10.68;3.53;;;;;;;15.90;44.41;95615.13;5088866;28;20217;-69
2023/10/02 06:04:43;;;;;;;8.30;3.38;;;;;;;15.97;44.45;95621.41;5072016;28;20335;-69
2023/10/02 06:07:11;;;;;;;5.22;3.42;;;;;;;15.93;44.12;95614.78;5067047;28;20253;-68
2023/10/02 06:09:44;;;;;;;6.47;3.70;;;;;;;15.85;44.64;95616.47;5063135;28;20261;-73
2023/10/02 06:12:11;;;;;;;6.88;4.45;;;;;;;16.03;44.28;95626.03;5060046;28;20218;-74
2023/10/02 06:14:39;;;;;;;6.78;4.28;;;;;;;16.10;44.25;95619.88;5091819;28;20733;-69
2023/10/02 06:17:11;;;;;;;5.93;3.80;;;;;;;16.16;44.44;95626.31;5074250;28;20220;-78
2023/10/02 06:19:43;;;;;;;4.75;3.60;;;;;;;16.17;44.30;95620.03;5060660;28;20319;-77
2023/10/02 06:22:13;;;;;;;7.93;4.00;;;;;;;16.21;44.51;95628.47;5067142;28;20220;-74
2023/10/02 06:24:39;;;;;;;6.88;3.97;;;;;;;16.30;44.61;95630.06;5085980;28;20203;-74
2023/10/02 06:27:07;;;;;;;8.30;3.85;;;;;;;16.42;44.19;95628.72;5089910;28;20206;-71
2023/10/02 06:29:37;;;;;;;7.97;4.25;;;;;;;16.46;44.77;95630.00;5052069;28;20255;-76
2023/10/02 06:32:11;;;;;;;7.65;3.85;;;;;;;16.47;43.71;95631.69;5044424;28;21112;-73
2023/10/02 06:34:43;;;;;;;10.38;4.45;;;;;;;16.40;43.48;95637.84;5077825;28;20249;-72
2023/10/02 06:37:16;;;;;;;10.88;3.90;;;;;;;16.39;45.72;95629.06;5098781;28;20227;-78
2023/10/02 06:40:02;;;;;;;9.60;4.47;;;;;;;16.48;43.42;95646.59;5088058;28;20263;-74
2023/10/02 06:42:31;;;;;;;5.63;3.63;;;;;;;16.57;43.17;95647.38;5088426;28;20172;-73
2023/10/02 06:45:01;;;;;;;7.95;3.85;;;;;;;16.44;44.00;95644.44;5076567;28;20180;-72
2023/10/02 06:47:32;;;;;;;5.20;3.22;;;;;;;16.59;43.61;95653.34;5088090;28;20221;-72
2023/10/02 06:50:23;;;;;;;11.23;4.13;;;;;;;16.39;43.33;95652.13;5088651;28;20561;-75
2023/10/02 06:52:49;;;;;;;5.95;3.40;;;;;;;16.40;43.49;95649.28;5090721;28;20249;-73
2023/10/02 06:55:17;;;;;;;6.07;3.88;;;;;;;16.30;43.71;95657.47;5094415;28;20216;-73
2023/10/02 06:57:49;;;;;;;5.22;3.90;;;;;;;16.47;43.66;95655.56;5089678;28;20279;-74
2023/10/02 07:00:19;;;;;;;6.28;4.00;;;;;;;16.39;44.40;95649.47;5088857;28;20176;-71
2023/10/02 07:02:56;;;;;;;5.07;3.60;;;;;;;16.28;44.45;95667.41;5063260;28;20227;-69
2023/10/02 07:05:27;;;;;;;6.82;4.18;;;;;;;16.39;43.83;95655.59;5060410;28;20225;-76
2023/10/02 07:08:01;;;;;;;7.70;4.20;;;;;;;16.27;44.35;95657.78;5064212;28;20240;-74
2023/10/02 07:10:40;;;;;;;6.35;3.78;;;;;;;16.12;44.75;95659.50;5061344;28;20216;-74
2023/10/02 07:13:18;;;;;;;9.25;3.92;;;;;;;16.10;44.75;95651.72;5084734;28;20529;-75
2023/10/02 07:15:45;;;;;;;11.88;3.80;;;;;;;16.15;44.97;95655.69;5069823;28;20201;-67
2023/10/02 07:18:12;;;;;;;7.82;3.83;;;;;;;16.26;44.71;95650.00;5065451;28;20241;-68
2023/10/02 07:20:42;;;;;;;5.53;4.10;;;;;;;16.27;44.39;95655.13;5053964;28;20234;-68
2023/10/02 07:23:19;;;;;;;5.88;3.92;;;;;;;16.21;45.05;95660.31;5050605;28;20221;-79
2023/10/02 07:25:51;;;;;;;5.80;4.07;;;;;;;16.26;45.09;95656.13;5059148;28;20286;-72
2023/10/02 07:28:23;;;;;;;8.45;4.75;;;;;;;16.31;44.98;95667.06;5059632;28;20218;-77
2023/10/02 07:30:53;;;;;;;9.35;4.50;;;;;;;16.38;44.74;95669.84;5045132;28;20250;-77
2023/10/02 07:33:19;;;;;;;11.18;4.07;;;;;;;16.37;44.92;95662.91;5069013;28;20187;-77
2023/10/02 07:35:52;;;;;;;5.40;3.75;;;;;;;16.45;45.39;95659.41;5054871;28;20361;-69
2023/10/02 07:38:22;;;;;;;5.57;3.80;;;;;;;16.52;44.43;95665.69;5045109;28;20218;-73
2023/10/02 07:40:49;;;;;;;7.32;3.97;;;;;;;16.66;44.55;95662.28;5082119;28;20224;-74
2023/10/02 07:43:18;;;;;;;8.80;4.38;;;;;;;16.86;44.27;95657.38;5067042;28;20217;-72
2023/10/02 07:48:35;;;;;;;7.45;4.40;;;;;;;17.14;43.96;95663.03;5067784;28;20188;-73
2023/10/02 07:51:09;;;;;;;5.97;4.35;;;;;;;17.24;43.91;95654.84;5071885;28;20663;-70
2023/10/02 07:53:40;;;;;;;5.80;3.83;;;;;;;17.25;42.98;95671.59;5058669;28;20263;-73
2023/10/02 07:56:14;;;;;;;9.02;3.85;;;;;;;17.11;42.45;95662.56;5068616;28;20307;-73
2023/10/02 08:01:27;;;;;;;5.85;3.95;;;;;;;17.33;43.41;95663.56;5069771;28;20323;-74
2023/10/02 08:03:55;;;;;;;6.90;4.80;;;;;;;17.28;43.17;95666.75;5078803;28;20232;-69
2023/10/02 08:06:36;;;;;;;8.90;4.90;;;;;;;17.27;43.34;95661.59;5065269;28;20189;-74
2023/10/02 08:11:52;;;;;;;7.20;4.22;;;;;;;17.28;43.93;95665.94;5069682;28;20295;-79
2023/10/02 08:14:57;;;;;;;7.22;4.70;;;;;;;17.50;42.94;95658.94;5050134;28;20225;-72
2023/10/02 08:17:35;;;;;;;5.18;3.95;;;;;;;17.56;43.17;95663.53;5058235;28;20711;-82
2023/10/02 08:20:15;;;;;;;10.43;4.40;;;;;;;17.59;42.84;95661.34;5061881;28;20302;-73
2023/10/02 08:22:45;;;;;;;11.40;4.72;;;;;;;17.69;42.42;95647.78;5063789;28;20274;-71
2023/10/02 08:25:14;;;;;;;8.50;4.22;;;;;;;17.43;42.91;95656.19;5065816;28;20220;-71
2023/10/02 08:27:42;;;;;;;5.40;3.65;;;;;;;17.64;42.37;95661.66;5060122;28;20185;-72
2023/10/02 08:30:31;;;;;;;15.10;4.68;;;;;;;17.66;42.28;95657.97;5063382;28;20182;-80
2023/10/02 08:33:43;;;;;;;12.07;4.05;;;;;;;17.52;41.10;95664.91;5072806;28;20213;-81
2023/10/02 08:35:54;;;;;;;6.18;3.80;;;;;;;17.42;41.66;95665.97;5092158;28;20586;-74
2023/10/02 08:38:22;;;;;;;8.50;4.22;;;;;;;17.46;42.61;95657.66;5070901;28;20224;-75
2023/10/02 08:40:59;;;;;;;9.40;3.92;;;;;;;17.67;42.22;95670.25;5082743;28;20235;-73
2023/10/02 08:43:42;;;;;;;9.45;4.28;;;;;;;17.60;42.22;95663.00;5066035;28;20216;-72
2023/10/02 08:46:21;;;;;;;7.75;3.55;;;;;;;17.65;42.35;95651.84;5071129;28;20236;-70
2023/10/02 08:48:55;;;;;;;8.63;4.00;;;;;;;17.66;42.35;95656.13;5088142;28;20227;-69
2023/10/02 08:51:35;;;;;;;7.72;4.32;;;;;;;17.75;41.95;95648.91;5081376;28;20177;-74
2023/10/02 08:54:08;;;;;;;8.27;4.32;;;;;;;17.61;41.10;95656.69;5066367;28;20224;-68
2023/10/02 08:56:54;;;;;;;8.52;3.97;;;;;;;17.73;41.57;95648.28;5078130;28;20227;-78
2023/10/02 08:59:35;;;;;;;12.27;4.72;;;;;;;17.75;41.08;95644.44;5065922;28;20220;-76
2023/10/02 09:02:17;;;;;;;9.88;5.07;;;;;;;18.04;41.05;95640.16;5065703;28;20223;-77
2023/10/02 09:04:51;;;;;;;6.03;3.75;;;;;;;18.26;41.00;95649.09;5069482;28;20205;-75
2023/10/02 09:10:24;;;;;;;6.97;4.22;;;;;;;18.41;40.31;95657.88;5089269;28;20285;-71
2023/10/02 09:13:09;;;;;;;6.60;4.25;;;;;;;18.31;40.54;95644.06;5076768;28;20303;-68
2023/10/02 09:15:35;;;;;;;6.43;4.15;;;;;;;18.50;40.51;95645.31;5087408;28;20695;-73
2023/10/02 09:18:19;;;;;;;14.07;4.97;;;;;;;18.67;40.19;95629.94;5084463;28;20200;-70
2023/10/02 09:21:12;;;;;;;7.68;4.45;;;;;;;18.78;40.14;95637.47;5090304;28;20220;-77
2023/10/02 09:23:49;;;;;;;11.68;5.63;;;;;;;18.89;38.94;95644.16;5074751;28;20225;-71
2023/10/02 09:26:23;;;;;;;8.77;4.97;;;;;;;18.53;39.66;95636.94;5086286;28;20222;-70
2023/10/02 09:29:05;;;;;;;10.75;5.18;;;;;;;18.65;39.89;95638.09;5084489;28;20707;-72
2023/10/02 09:31:34;;;;;;;8.27;4.95;;;;;;;18.83;39.18;95642.25;5071384;28;20257;-73
2023/10/02 09:34:16;;;;;;;11.18;4.50;;;;;;;19.02;38.49;95635.47;5089506;28;20216;-68
2023/10/02 09:36:53;;;;;;;9.30;5.18;;;;;;;19.18;37.96;95645.91;5092046;28;20196;-72
2023/10/02 09:39:31;;;;;;;9.07;4.70;;;;;;;19.25;37.12;95636.13;5074833;28;20190;-67
2023/10/02 09:42:06;;;;;;;5.72;4.80;;;;;;;19.02;37.57;95638.16;5092404;28;20218;-68
2023/10/02 09:44:42;;;;;;;8.38;4.50;;;;;;;18.99;37.05;95631.34;5058583;28;21167;-66
2023/10/02 09:47:11;;;;;;;8.25;4.50;;;;;;;19.28;37.55;95630.41;5068899;28;20216;-68
2023/10/02 09:49:48;;;;;;;6.47;4.22;;;;;;;19.53;35.70;95638.03;5089430;28;20229;-70
2023/10/02 09:52:23;;;;;;;7.40;4.60;;;;;;;19.55;35.90;95638.66;5070441;28;20246;-70
2023/10/02 09:55:04;;;;;;;10.95;4.82;;;;;;;19.78;36.25;95635.78;5072271;28;20219;-72
2023/10/02 09:57:49;;;;;;;8.13;4.90;;;;;;;19.95;35.90;95634.47;5070443;28;20191;-72
2023/10/02 10:03:24;;;;;;;5.88;4.65;;;;;;;20.11;34.39;95640.53;5089262;28;20319;-76
2023/10/02 10:06:16;;;;;;;7.25;4.78;;;;;;;20.09;34.25;95640.72;5068109;28;20723;-72
2023/10/02 10:14:42;;;;;;;7.22;5.35;;;;;;;20.21;33.02;95639.19;5090412;28;20242;-71
2023/10/02 10:17:17;;;;;;;6.63;4.55;;;;;;;20.36;33.33;95631.03;5074085;28;20216;-68
2023/10/02 10:20:07;;;;;;;7.15;4.88;;;;;;;20.26;32.65;95636.75;5076552;28;20220;-78
2023/10/02 10:22:39;;;;;;;7.55;5.10;;;;;;;20.24;31.59;95628.09;5075849;28;20764;-74
2023/10/02 10:25:35;;;;;;;7.15;4.63;;;;;;;20.33;31.89;95625.25;5075654;28;20211;-71
2023/10/02 10:28:05;;;;;;;9.65;5.05;;;;;;;20.60;31.95;95621.72;5079738;28;20221;-76
2023/10/02 10:30:39;;;;;;;6.55;4.30;;;;;;;20.83;31.64;95620.59;5093918;28;20180;-73
2023/10/02 10:35:49;;;;;;;6.95;4.82;;;;;;;20.57;31.17;95598.06;5092001;28;20217;-75
2023/10/02 10:38:28;;;;;;;9.13;5.15;;;;;;;20.82;31.89;95603.72;5085003;28;20231;-72
2023/10/02 10:41:01;;;;;;;8.18;5.22;;;;;;;20.85;31.71;95602.47;5070019;28;20247;-74
2023/10/02 10:46:23;;;;;;;7.82;4.85;;;;;;;21.12;31.44;95596.19;5074098;28;20240;-73
2023/10/02 10:48:59;;;;;;;6.65;4.78;;;;;;;21.27;31.44;95587.13;5068466;28;20415;-80
2023/10/02 10:51:28;;;;;;;8.55;4.85;;;;;;;21.30;31.51;95592.06;5042536;28;20185;-74
2023/10/02 10:54:13;;;;;;;7.65;5.25;;;;;;;21.39;30.84;95580.19;5056934;28;20278;-75
2023/10/02 10:59:45;;;;;;;7.95;4.97;;;;;;;21.56;30.47;95592.13;5093265;28;20569;-71
2023/10/02 11:02:15;;;;;;;6.72;5.15;;;;;;;21.54;31.00;95574.63;5055483;28;20225;-71
2023/10/02 11:04:48;;;;;;;6.22;5.00;;;;;;;21.43;31.54;95570.72;5044560;28;20590;-75
2023/10/02 11:07:23;;;;;;;6.72;5.15;;;;;;;21.55;31.08;95574.41;5065374;28;20243;-68
2023/10/02 11:10:19;;;;;;;10.48;5.43;;;;;;;21.52;31.05;95574.84;5088329;28;20276;-74
2023/10/02 11:13:08;;;;;;;8.85;5.72;;;;;;;21.55;32.06;95577.09;5090961;28;20905;-76
2023/10/02 11:15:48;;;;;;;7.88;4.93;;;;;;;21.66;31.95;95572.16;5082544;28;20200;-72
2023/10/02 11:18:18;;;;;;;7.63;5.20;;;;;;;21.89;31.82;95569.03;5089463;28;20225;-71
2023/10/02 11:20:49;;;;;;;7.60;5.75;;;;;;;21.88;31.15;95565.53;5086923;28;20284;-72
2023/10/02 11:23:29;;;;;;;7.57;5.22;;;;;;;21.62;31.00;95569.06;5092638;28;20216;-70
2023/10/02 11:25:55;;;;;;;6.28;4.75;;;;;;;21.36;32.31;95565.34;5067903;28;20248;-76
2023/10/02 11:28:32;;;;;;;7.82;5.53;;;;;;;21.27;32.00;95558.53;5061020;28;20209;-79
2023/10/02 11:31:29;;;;;;;6.50;5.07;;;;;;;21.65;31.89;95551.75;5046523;28;20209;-71
2023/10/02 11:34:08;;;;;;;7.60;5.82;;;;;;;22.00;31.33;95555.84;5044832;28;20208;-74
2023/10/02 11:36:37;;;;;;;6.15;5.55;;;;;;;22.27;31.41;95552.28;5070510;28;20283;-74
2023/10/02 11:39:19;;;;;;;7.07;5.00;;;;;;;22.44;30.73;95556.13;5048966;28;20636;-74
2023/10/02 11:41:46;;;;;;;6.55;4.80;;;;;;;22.40;30.68;95558.41;5070586;28;20209;-71
2023/10/02 11:44:13;;;;;;;6.63;5.50;;;;;;;22.59;30.93;95550.50;5062772;28;20262;-70
2023/10/02 11:46:47;;;;;;;7.50;5.22;;;;;;;22.78;30.93;95554.13;5069333;28;20300;-71
2023/10/02 11:49:13;;;;;;;6.57;4.93;;;;;;;22.93;30.63;95549.25;5066969;28;20275;-74
2023/10/02 11:51:43;;;;;;;6.35;5.18;;;;;;;22.85;30.21;95545.00;5062807;28;20189;-74
2023/10/02 11:54:11;;;;;;;7.93;4.80;;;;;;;23.00;30.22;95549.28;5071430;28;20172;-75
2023/10/02 11:56:38;;;;;;;8.43;4.97;;;;;;;22.82;30.43;95550.78;5063771;28;20258;-77
2023/10/02 11:59:04;;;;;;;6.78;4.60;;;;;;;22.73;30.89;95551.25;5050610;28;21075;-76
2023/10/02 12:01:29;;;;;;;8.45;5.43;;;;;;;22.26;31.32;95548.78;5068016;28;20244;-73
2023/10/02 12:03:57;;;;;;;7.00;4.63;;;;;;;22.24;32.04;95554.34;5066533;28;20217;-72
2023/10/02 12:06:24;;;;;;;8.40;5.15;;;;;;;22.21;31.68;95540.53;5052668;28;20181;-71
2023/10/02 12:08:50;;;;;;;8.43;5.28;;;;;;;22.52;31.62;95549.72;5063451;28;20311;-75
2023/10/02 12:11:15;;;;;;;8.45;5.25;;;;;;;22.71;31.00;95534.56;5048378;28;20300;-74
2023/10/02 12:13:44;;;;;;;8.18;6.18;;;;;;;23.13;30.66;95535.78;5073102;28;20226;-72
2023/10/02 12:16:12;;;;;;;9.63;5.82;;;;;;;23.33;30.09;95535.59;5061779;28;20307;-73
2023/10/02 12:18:38;;;;;;;7.78;6.03;;;;;;;23.47;29.28;95526.41;5064131;28;20250;-70
2023/10/02 12:21:14;;;;;;;8.07;5.57;;;;;;;23.66;29.50;95527.28;5065253;28;20178;-72
2023/10/02 12:23:43;;;;;;;6.70;5.55;;;;;;;23.81;28.92;95531.50;5058133;28;20217;-73
2023/10/02 12:26:12;;;;;;;6.85;5.82;;;;;;;23.70;28.80;95531.16;5043825;28;20221;-76
2023/10/02 12:28:38;;;;;;;6.53;5.75;;;;;;;23.91;28.95;95538.00;5052522;28;20220;-74
2023/10/02 12:31:12;;;;;;;6.35;5.63;;;;;;;24.60;27.62;95527.13;5073996;28;20220;-78
2023/10/02 12:33:38;;;;;;;9.77;6.20;;;;;;;24.74;27.04;95530.44;5070798;28;20287;-72
2023/10/02 12:36:23;;;;;;;9.82;6.82;;;;;;;25.28;26.84;95528.63;5073224;28;20718;-73
2023/10/02 12:38:50;;;;;;;7.82;6.38;;;;;;;27.40;23.97;95518.25;5069269;28;20232;-74
2023/10/02 12:41:18;;;;;;;6.95;6.20;;;;;;;29.15;21.96;95524.09;5048508;28;20217;-74
2023/10/02 12:43:45;;;;;;;8.15;6.97;;;;;;;28.85;21.75;95527.31;5064550;28;20229;-74
2023/10/02 12:46:15;;;;;;;6.68;6.00;;;;;;;28.70;22.01;95525.22;5068497;28;20229;-72
2023/10/02 12:48:46;;;;;;;8.68;6.10;;;;;;;30.53;20.28;95516.97;5069856;28;20180;-72
2023/10/02 12:51:13;;;;;;;8.40;5.88;;;;;;;32.50;17.92;95516.53;5068972;28;20169;-73
2023/10/02 12:53:40;;;;;;;6.93;6.22;;;;;;;33.90;16.87;95520.03;5054054;28;20307;-74